sensor_id;sensor_type;location;lat;lon;timestamp;P1;durP1;ratioP1;P2;durP2;ratioP2
17636;SDS011;8937;51.236;6.794;2022-11-21T00:06:30;13.23;;;8.27;;
17636;SDS011;8937;51.236;6.794;2022-11-21T00:14:53;9.13;;;6.63;;
17636;SDS011;8937;51.236;6.794;2022-11-21T00:23:14;9.50;;;5.90;;
17636;SDS011;8937;51.236;6.794;2022-11-21T00:31:37;10.00;;;6.40;;
17636;SDS011;8937;51.236;6.794;2022-11-21T00:39:58;12.23;;;8.30;;
17636;SDS011;8937;51.236;6.794;2022-11-21T00:48:21;10.93;;;7.00;;
17636;SDS011;8937;51.236;6.794;2022-11-21T00:56:42;15.83;;;8.13;;
17636;SDS011;8937;51.236;6.794;2022-11-21T01:05:05;18.50;;;10.73;;
17636;SDS011;8937;51.236;6.794;2022-11-21T01:13:27;18.87;;;10.63;;
17636;SDS011;8937;51.236;6.794;2022-11-21T01:21:49;14.33;;;9.00;;
17636;SDS011;8937;51.236;6.794;2022-11-21T01:30:11;18.20;;;10.23;;
17636;SDS011;8937;51.236;6.794;2022-11-21T01:38:34;25.80;;;12.57;;
17636;SDS011;8937;51.236;6.794;2022-11-21T01:46:56;24.67;;;11.67;;
17636;SDS011;8937;51.236;6.794;2022-11-21T01:55:19;27.83;;;12.47;;
17636;SDS011;8937;51.236;6.794;2022-11-21T02:03:40;23.23;;;11.07;;
17636;SDS011;8937;51.236;6.794;2022-11-21T02:12:05;22.03;;;11.33;;
17636;SDS011;8937;51.236;6.794;2022-11-21T02:20:28;17.57;;;9.50;;
17636;SDS011;8937;51.236;6.794;2022-11-21T02:28:51;28.83;;;12.40;;
17636;SDS011;8937;51.236;6.794;2022-11-21T02:37:12;20.90;;;10.93;;
17636;SDS011;8937;51.236;6.794;2022-11-21T02:45:36;16.27;;;8.97;;
17636;SDS011;8937;51.236;6.794;2022-11-21T02:53:58;16.60;;;8.90;;
17636;SDS011;8937;51.236;6.794;2022-11-21T03:02:20;17.20;;;9.87;;
17636;SDS011;8937;51.236;6.794;2022-11-21T03:10:42;16.50;;;9.20;;
17636;SDS011;8937;51.236;6.794;2022-11-21T03:19:05;20.20;;;10.47;;
17636;SDS011;8937;51.236;6.794;2022-11-21T03:27:26;21.03;;;11.27;;
17636;SDS011;8937;51.236;6.794;2022-11-21T03:35:49;29.50;;;13.73;;
17636;SDS011;8937;51.236;6.794;2022-11-21T03:44:11;23.17;;;11.70;;
17636;SDS011;8937;51.236;6.794;2022-11-21T03:52:34;19.67;;;9.93;;
17636;SDS011;8937;51.236;6.794;2022-11-21T04:00:55;19.67;;;10.67;;
17636;SDS011;8937;51.236;6.794;2022-11-21T04:09:18;21.90;;;11.27;;
17636;SDS011;8937;51.236;6.794;2022-11-21T04:17:39;26.33;;;12.83;;
17636;SDS011;8937;51.236;6.794;2022-11-21T04:26:02;25.37;;;11.87;;
17636;SDS011;8937;51.236;6.794;2022-11-21T04:34:23;17.93;;;9.33;;
17636;SDS011;8937;51.236;6.794;2022-11-21T04:42:46;16.57;;;8.57;;
17636;SDS011;8937;51.236;6.794;2022-11-21T04:51:07;17.30;;;9.07;;
17636;SDS011;8937;51.236;6.794;2022-11-21T04:59:30;15.43;;;7.60;;
17636;SDS011;8937;51.236;6.794;2022-11-21T05:07:52;16.83;;;7.77;;
17636;SDS011;8937;51.236;6.794;2022-11-21T05:16:14;16.03;;;7.40;;
17636;SDS011;8937;51.236;6.794;2022-11-21T05:24:36;13.03;;;6.67;;
17636;SDS011;8937;51.236;6.794;2022-11-21T05:32:58;14.70;;;7.00;;
17636;SDS011;8937;51.236;6.794;2022-11-21T05:41:20;14.60;;;7.17;;
17636;SDS011;8937;51.236;6.794;2022-11-21T05:49:43;15.90;;;7.67;;
17636;SDS011;8937;51.236;6.794;2022-11-21T05:58:04;15.53;;;7.20;;
17636;SDS011;8937;51.236;6.794;2022-11-21T06:06:29;17.83;;;8.30;;
17636;SDS011;8937;51.236;6.794;2022-11-21T06:14:50;18.13;;;8.30;;
17636;SDS011;8937;51.236;6.794;2022-11-21T06:23:13;16.87;;;7.47;;
17636;SDS011;8937;51.236;6.794;2022-11-21T06:31:35;16.17;;;7.53;;
17636;SDS011;8937;51.236;6.794;2022-11-21T06:39:57;21.80;;;8.23;;
17636;SDS011;8937;51.236;6.794;2022-11-21T06:48:19;15.10;;;7.57;;
17636;SDS011;8937;51.236;6.794;2022-11-21T06:56:41;16.80;;;8.57;;
17636;SDS011;8937;51.236;6.794;2022-11-21T07:05:03;19.40;;;8.53;;
17636;SDS011;8937;51.236;6.794;2022-11-21T07:13:25;16.47;;;9.33;;
17636;SDS011;8937;51.236;6.794;2022-11-21T07:21:47;21.40;;;8.63;;
17636;SDS011;8937;51.236;6.794;2022-11-21T07:30:11;16.60;;;8.73;;
17636;SDS011;8937;51.236;6.794;2022-11-21T07:38:32;16.67;;;7.63;;
17636;SDS011;8937;51.236;6.794;2022-11-21T07:46:55;17.03;;;8.53;;
17636;SDS011;8937;51.236;6.794;2022-11-21T07:55:16;16.67;;;8.10;;
17636;SDS011;8937;51.236;6.794;2022-11-21T08:03:40;11.50;;;6.57;;
17636;SDS011;8937;51.236;6.794;2022-11-21T08:12:01;10.93;;;6.27;;
17636;SDS011;8937;51.236;6.794;2022-11-21T08:20:24;7.40;;;5.17;;
17636;SDS011;8937;51.236;6.794;2022-11-21T08:28:46;5.90;;;4.37;;
17636;SDS011;8937;51.236;6.794;2022-11-21T08:37:09;4.27;;;3.87;;
17636;SDS011;8937;51.236;6.794;2022-11-21T08:45:31;4.73;;;3.87;;
17636;SDS011;8937;51.236;6.794;2022-11-21T08:53:54;5.30;;;3.30;;
17636;SDS011;8937;51.236;6.794;2022-11-21T09:02:17;3.57;;;2.87;;
17636;SDS011;8937;51.236;6.794;2022-11-21T09:10:39;3.80;;;2.53;;
17636;SDS011;8937;51.236;6.794;2022-11-21T09:19:01;4.33;;;2.77;;
17636;SDS011;8937;51.236;6.794;2022-11-21T09:27:24;5.07;;;3.30;;
17636;SDS011;8937;51.236;6.794;2022-11-21T09:35:45;3.57;;;2.93;;
17636;SDS011;8937;51.236;6.794;2022-11-21T09:44:09;3.07;;;2.77;;
17636;SDS011;8937;51.236;6.794;2022-11-21T09:52:36;9.30;;;3.50;;
17636;SDS011;8937;51.236;6.794;2022-11-21T10:00:59;4.00;;;3.43;;
17636;SDS011;8937;51.236;6.794;2022-11-21T10:09:23;3.30;;;2.77;;
17636;SDS011;8937;51.236;6.794;2022-11-21T10:17:51;4.40;;;2.77;;
17636;SDS011;8937;51.236;6.794;2022-11-21T10:26:19;3.87;;;2.90;;
17636;SDS011;8937;51.236;6.794;2022-11-21T10:34:43;4.67;;;2.83;;
17636;SDS011;8937;51.236;6.794;2022-11-21T10:43:07;4.40;;;2.93;;
17636;SDS011;8937;51.236;6.794;2022-11-21T10:51:49;5.70;;;3.40;;
17636;SDS011;8937;51.236;6.794;2022-11-21T11:00:15;4.47;;;2.50;;
17636;SDS011;8937;51.236;6.794;2022-11-21T11:08:48;6.10;;;2.67;;
17636;SDS011;8937;51.236;6.794;2022-11-21T11:17:12;3.23;;;2.93;;
17636;SDS011;8937;51.236;6.794;2022-11-21T11:25:35;3.23;;;2.50;;
17636;SDS011;8937;51.236;6.794;2022-11-21T11:33:56;3.00;;;2.70;;
17636;SDS011;8937;51.236;6.794;2022-11-21T11:42:41;4.07;;;3.00;;
17636;SDS011;8937;51.236;6.794;2022-11-21T11:51:26;3.40;;;2.37;;
17636;SDS011;8937;51.236;6.794;2022-11-21T11:59:52;6.67;;;3.53;;
17636;SDS011;8937;51.236;6.794;2022-11-21T12:08:19;4.60;;;3.47;;
17636;SDS011;8937;51.236;6.794;2022-11-21T12:16:44;5.80;;;3.00;;
17636;SDS011;8937;51.236;6.794;2022-11-21T12:25:09;3.83;;;2.87;;
17636;SDS011;8937;51.236;6.794;2022-11-21T12:33:31;4.00;;;2.53;;
17636;SDS011;8937;51.236;6.794;2022-11-21T12:41:56;3.63;;;2.30;;
17636;SDS011;8937;51.236;6.794;2022-11-21T12:50:40;2.67;;;2.30;;
17636;SDS011;8937;51.236;6.794;2022-11-21T12:59:24;3.17;;;1.50;;
17636;SDS011;8937;51.236;6.794;2022-11-21T13:07:47;2.63;;;1.30;;
17636;SDS011;8937;51.236;6.794;2022-11-21T13:16:09;2.17;;;1.40;;
17636;SDS011;8937;51.236;6.794;2022-11-21T13:33:09;1.40;;;1.23;;
17636;SDS011;8937;51.236;6.794;2022-11-21T13:50:36;1.23;;;1.23;;
17636;SDS011;8937;51.236;6.794;2022-11-21T13:59:05;1.30;;;1.10;;
17636;SDS011;8937;51.236;6.794;2022-11-21T14:07:32;2.57;;;1.30;;
17636;SDS011;8937;51.236;6.794;2022-11-21T14:16:02;1.73;;;1.10;;
17636;SDS011;8937;51.236;6.794;2022-11-21T14:24:27;1.30;;;1.20;;
17636;SDS011;8937;51.236;6.794;2022-11-21T14:32:49;1.00;;;1.00;;
17636;SDS011;8937;51.236;6.794;2022-11-21T14:49:52;1.17;;;1.07;;
17636;SDS011;8937;51.236;6.794;2022-11-21T14:58:14;1.67;;;1.40;;
17636;SDS011;8937;51.236;6.794;2022-11-21T15:06:41;0.97;;;0.97;;
17636;SDS011;8937;51.236;6.794;2022-11-21T15:15:03;1.93;;;1.27;;
17636;SDS011;8937;51.236;6.794;2022-11-21T15:23:28;1.83;;;1.20;;
17636;SDS011;8937;51.236;6.794;2022-11-21T15:40:30;1.03;;;1.03;;
17636;SDS011;8937;51.236;6.794;2022-11-21T15:48:53;2.13;;;1.17;;
17636;SDS011;8937;51.236;6.794;2022-11-21T15:57:16;1.77;;;1.10;;
17636;SDS011;8937;51.236;6.794;2022-11-21T16:05:37;1.53;;;1.20;;
17636;SDS011;8937;51.236;6.794;2022-11-21T16:14:01;1.00;;;1.00;;
17636;SDS011;8937;51.236;6.794;2022-11-21T16:22:23;1.30;;;1.20;;
17636;SDS011;8937;51.236;6.794;2022-11-21T16:30:45;1.27;;;1.20;;
17636;SDS011;8937;51.236;6.794;2022-11-21T16:39:07;1.50;;;1.40;;
17636;SDS011;8937;51.236;6.794;2022-11-21T16:47:29;3.17;;;1.63;;
17636;SDS011;8937;51.236;6.794;2022-11-21T16:55:58;2.00;;;1.30;;
17636;SDS011;8937;51.236;6.794;2022-11-21T17:04:21;1.50;;;1.40;;
17636;SDS011;8937;51.236;6.794;2022-11-21T17:12:42;2.77;;;1.43;;
17636;SDS011;8937;51.236;6.794;2022-11-21T17:21:05;3.87;;;1.80;;
17636;SDS011;8937;51.236;6.794;2022-11-21T17:29:28;1.77;;;1.30;;
17636;SDS011;8937;51.236;6.794;2022-11-21T17:37:51;3.00;;;1.47;;
17636;SDS011;8937;51.236;6.794;2022-11-21T17:46:13;4.37;;;1.50;;
17636;SDS011;8937;51.236;6.794;2022-11-21T17:54:38;1.80;;;1.60;;
17636;SDS011;8937;51.236;6.794;2022-11-21T18:02:59;2.50;;;1.67;;
17636;SDS011;8937;51.236;6.794;2022-11-21T18:11:22;4.20;;;1.10;;
17636;SDS011;8937;51.236;6.794;2022-11-21T18:19:44;2.03;;;1.60;;
17636;SDS011;8937;51.236;6.794;2022-11-21T18:28:08;1.40;;;1.30;;
17636;SDS011;8937;51.236;6.794;2022-11-21T18:36:30;2.33;;;1.50;;
17636;SDS011;8937;51.236;6.794;2022-11-21T18:44:53;1.93;;;1.40;;
17636;SDS011;8937;51.236;6.794;2022-11-21T18:53:15;1.43;;;1.33;;
17636;SDS011;8937;51.236;6.794;2022-11-21T19:01:38;2.57;;;1.37;;
17636;SDS011;8937;51.236;6.794;2022-11-21T19:09:59;2.33;;;1.60;;
17636;SDS011;8937;51.236;6.794;2022-11-21T19:18:23;3.53;;;1.73;;
17636;SDS011;8937;51.236;6.794;2022-11-21T19:26:44;2.80;;;1.53;;
17636;SDS011;8937;51.236;6.794;2022-11-21T19:35:07;2.27;;;1.63;;
17636;SDS011;8937;51.236;6.794;2022-11-21T19:43:29;2.97;;;2.00;;
17636;SDS011;8937;51.236;6.794;2022-11-21T19:51:52;2.40;;;1.60;;
17636;SDS011;8937;51.236;6.794;2022-11-21T20:00:14;1.77;;;1.60;;
17636;SDS011;8937;51.236;6.794;2022-11-21T20:08:36;4.17;;;1.90;;
17636;SDS011;8937;51.236;6.794;2022-11-21T20:16:58;2.70;;;1.40;;
17636;SDS011;8937;51.236;6.794;2022-11-21T20:25:21;2.73;;;1.60;;
17636;SDS011;8937;51.236;6.794;2022-11-21T20:33:43;5.00;;;1.87;;
17636;SDS011;8937;51.236;6.794;2022-11-21T20:42:05;2.53;;;2.00;;
17636;SDS011;8937;51.236;6.794;2022-11-21T20:50:27;2.63;;;1.70;;
17636;SDS011;8937;51.236;6.794;2022-11-21T20:58:50;3.60;;;1.83;;
17636;SDS011;8937;51.236;6.794;2022-11-21T21:07:11;4.97;;;1.70;;
17636;SDS011;8937;51.236;6.794;2022-11-21T21:15:34;1.47;;;1.37;;
17636;SDS011;8937;51.236;6.794;2022-11-21T21:23:56;6.77;;;1.40;;
17636;SDS011;8937;51.236;6.794;2022-11-21T21:32:20;4.27;;;1.73;;
17636;SDS011;8937;51.236;6.794;2022-11-21T21:40:42;4.00;;;1.60;;
17636;SDS011;8937;51.236;6.794;2022-11-21T21:49:08;4.53;;;1.90;;
17636;SDS011;8937;51.236;6.794;2022-11-21T21:57:29;2.50;;;1.70;;
17636;SDS011;8937;51.236;6.794;2022-11-21T22:05:52;2.40;;;1.43;;
17636;SDS011;8937;51.236;6.794;2022-11-21T22:14:14;1.50;;;1.40;;
17636;SDS011;8937;51.236;6.794;2022-11-21T22:22:37;2.37;;;1.70;;
17636;SDS011;8937;51.236;6.794;2022-11-21T22:30:58;3.47;;;1.67;;
17636;SDS011;8937;51.236;6.794;2022-11-21T22:39:21;2.43;;;1.70;;
17636;SDS011;8937;51.236;6.794;2022-11-21T22:47:43;1.73;;;1.63;;
17636;SDS011;8937;51.236;6.794;2022-11-21T22:56:06;2.93;;;1.33;;
17636;SDS011;8937;51.236;6.794;2022-11-21T23:04:28;2.43;;;1.50;;
17636;SDS011;8937;51.236;6.794;2022-11-21T23:12:50;6.30;;;1.53;;
17636;SDS011;8937;51.236;6.794;2022-11-21T23:21:12;1.37;;;1.27;;
17636;SDS011;8937;51.236;6.794;2022-11-21T23:29:35;1.67;;;1.53;;
17636;SDS011;8937;51.236;6.794;2022-11-21T23:37:56;1.37;;;1.20;;
17636;SDS011;8937;51.236;6.794;2022-11-21T23:46:19;1.47;;;1.33;;
17636;SDS011;8937;51.236;6.794;2022-11-21T23:54:40;2.30;;;1.43;;
